createdAt,value
2022-09-22T00:00:00.406Z,997.57
2022-09-22T00:01:00.392Z,997.59
2022-09-22T00:02:00.339Z,997.60
2022-09-22T00:03:00.155Z,997.57
2022-09-22T00:04:00.187Z,997.61
2022-09-22T00:04:59.988Z,997.62
2022-09-22T00:05:59.940Z,997.65
2022-09-22T00:06:59.843Z,997.60
2022-09-22T00:07:59.742Z,997.58
2022-09-22T00:08:59.698Z,997.60
2022-09-22T00:09:59.573Z,997.59
2022-09-22T00:10:59.491Z,997.56
2022-09-22T00:11:59.408Z,997.60
2022-09-22T00:12:59.325Z,997.63
2022-09-22T00:13:59.240Z,997.63
2022-09-22T00:14:59.157Z,997.62
2022-09-22T00:15:59.129Z,997.58
2022-09-22T00:16:58.992Z,997.58
2022-09-22T00:17:58.959Z,997.60
2022-09-22T00:18:58.829Z,997.61
2022-09-22T00:19:58.740Z,997.63
2022-09-22T00:20:58.659Z,997.63
2022-09-22T00:21:58.577Z,997.62
2022-09-22T00:22:58.510Z,997.63
2022-09-22T00:23:58.407Z,997.63
2022-09-22T00:24:58.324Z,997.65
2022-09-22T00:25:58.242Z,997.62
2022-09-22T00:26:58.162Z,997.65
2022-09-22T00:27:58.223Z,997.64
2022-09-22T00:28:57.993Z,997.61
2022-09-22T00:29:57.909Z,997.60
2022-09-22T00:30:57.830Z,997.61
2022-09-22T00:31:57.858Z,997.63
2022-09-22T00:32:57.661Z,997.58
2022-09-22T00:33:57.575Z,997.62
2022-09-22T00:34:57.494Z,997.63
2022-09-22T00:35:57.409Z,997.62
2022-09-22T00:36:57.327Z,997.67
2022-09-22T00:37:57.242Z,997.64
2022-09-22T00:38:57.180Z,997.66
2022-09-22T00:39:57.077Z,997.65
2022-09-22T00:40:56.997Z,997.62
2022-09-22T00:41:56.911Z,997.62
2022-09-22T00:42:56.829Z,997.60
2022-09-22T00:43:56.753Z,997.59
2022-09-22T00:44:56.663Z,997.57
2022-09-22T00:45:56.578Z,997.61
2022-09-22T00:46:56.592Z,997.59
2022-09-22T00:47:56.415Z,997.56
2022-09-22T00:48:56.345Z,997.60
2022-09-22T00:49:56.242Z,997.58
2022-09-22T00:50:56.163Z,997.57
2022-09-22T00:51:56.079Z,997.56
2022-09-22T00:52:55.995Z,997.55
2022-09-22T00:53:56.061Z,997.53
2022-09-22T00:54:55.848Z,997.54
2022-09-22T00:55:55.744Z,997.55
2022-09-22T00:56:55.661Z,997.54
2022-09-22T00:57:55.580Z,997.50
2022-09-22T00:58:55.497Z,997.50
2022-09-22T00:59:55.411Z,997.52
2022-09-22T01:00:55.395Z,997.48
2022-09-22T01:01:55.301Z,997.48
2022-09-22T01:02:55.166Z,997.50
2022-09-22T01:03:55.079Z,997.50
2022-09-22T01:04:54.995Z,997.52
2022-09-22T01:05:54.918Z,997.50
2022-09-22T01:06:54.830Z,997.48
2022-09-22T01:07:54.745Z,997.50
2022-09-22T01:08:54.667Z,997.49
2022-09-22T01:09:54.582Z,997.49
2022-09-22T01:10:54.518Z,997.47
2022-09-22T01:11:54.412Z,997.44
2022-09-22T01:12:54.332Z,997.44
2022-09-22T01:13:54.249Z,997.41
2022-09-22T01:14:54.165Z,997.43
2022-09-22T01:15:54.176Z,997.41
2022-09-22T01:16:53.997Z,997.41
2022-09-22T01:17:53.914Z,997.39
2022-09-22T01:18:53.834Z,997.42
2022-09-22T01:19:53.748Z,997.40
2022-09-22T01:20:53.666Z,997.40
2022-09-22T01:21:53.579Z,997.39
2022-09-22T01:22:53.503Z,997.35
2022-09-22T01:23:53.415Z,997.35
2022-09-22T01:24:53.333Z,997.35
2022-09-22T01:25:53.248Z,997.33
2022-09-22T01:26:53.336Z,997.31
2022-09-22T01:27:53.080Z,997.31
2022-09-22T01:28:53.000Z,997.28
2022-09-22T01:29:52.915Z,997.27
2022-09-22T01:30:52.879Z,997.30
2022-09-22T01:31:52.933Z,997.26
2022-09-22T01:32:52.667Z,997.26
2022-09-22T01:33:52.580Z,997.27
2022-09-22T01:34:52.498Z,997.24
2022-09-22T01:35:52.413Z,997.25
2022-09-22T01:36:52.480Z,997.25
2022-09-22T01:37:52.250Z,997.27
2022-09-22T01:38:52.164Z,997.27
2022-09-22T01:39:52.082Z,997.25
2022-09-22T01:40:51.999Z,997.26
2022-09-22T01:41:52.018Z,997.24
2022-09-22T01:42:51.852Z,997.25
2022-09-22T01:43:51.748Z,997.27
2022-09-22T01:44:51.662Z,997.26
2022-09-22T01:45:51.613Z,997.28
2022-09-22T01:46:51.542Z,997.23
2022-09-22T01:47:51.411Z,997.23
2022-09-22T01:48:51.333Z,997.24
2022-09-22T01:49:51.246Z,997.23
2022-09-22T01:50:51.163Z,997.19
2022-09-22T01:51:51.078Z,997.22
2022-09-22T01:52:50.996Z,997.23
2022-09-22T01:53:50.911Z,997.21
2022-09-22T01:54:50.830Z,997.24
2022-09-22T01:55:50.744Z,997.21
2022-09-22T01:56:50.663Z,997.19
2022-09-22T01:57:50.580Z,997.18
2022-09-22T01:58:50.515Z,997.17
2022-09-22T01:59:50.409Z,997.16
2022-09-22T02:00:50.328Z,997.15
2022-09-22T02:01:50.374Z,997.15
2022-09-22T02:02:50.319Z,997.13
2022-09-22T02:03:50.078Z,997.14
2022-09-22T02:04:49.996Z,997.14
2022-09-22T02:05:49.910Z,997.14
2022-09-22T02:06:49.827Z,997.15
2022-09-22T02:07:49.742Z,997.10
2022-09-22T02:08:49.658Z,997.10
2022-09-22T02:09:49.575Z,997.11
2022-09-22T02:10:49.491Z,997.08
2022-09-22T02:11:49.412Z,997.05
2022-09-22T02:12:49.324Z,997.07
2022-09-22T02:13:49.239Z,997.05
2022-09-22T02:14:49.176Z,997.06
2022-09-22T02:15:49.106Z,997.08
2022-09-22T02:16:48.990Z,997.09
2022-09-22T02:17:49.058Z,997.02
2022-09-22T02:18:48.822Z,997.02
2022-09-22T02:19:48.739Z,997.04
2022-09-22T02:20:48.654Z,997.01
2022-09-22T02:21:48.572Z,997.03
2022-09-22T02:22:48.489Z,997.02
2022-09-22T02:23:48.405Z,997.05
2022-09-22T02:24:48.318Z,997.04
2022-09-22T02:25:48.239Z,997.03
2022-09-22T02:26:48.152Z,997.01
2022-09-22T02:27:48.070Z,997.04
2022-09-22T02:28:47.985Z,997.05
2022-09-22T02:29:48.152Z,997.05
2022-09-22T02:31:10.450Z,997.06
2022-09-22T02:31:47.798Z,997.05
2022-09-22T02:32:47.652Z,997.00
2022-09-22T02:33:47.567Z,997.05
2022-09-22T02:34:47.484Z,997.04
2022-09-22T02:35:47.400Z,997.03
2022-09-22T02:36:47.315Z,997.04
2022-09-22T02:37:47.235Z,997.02
2022-09-22T02:38:47.148Z,997.05
2022-09-22T02:39:47.067Z,997.08
2022-09-22T02:40:47.100Z,997.03
2022-09-22T02:41:46.900Z,997.05
2022-09-22T02:42:46.814Z,996.99
2022-09-22T02:43:46.730Z,997.05
2022-09-22T02:44:46.645Z,997.03
2022-09-22T02:45:46.563Z,997.00
2022-09-22T02:46:46.502Z,996.98
2022-09-22T02:47:46.397Z,996.93
2022-09-22T02:48:46.311Z,996.98
2022-09-22T02:49:46.227Z,996.95
2022-09-22T02:50:46.148Z,996.99
2022-09-22T02:51:46.065Z,996.94
2022-09-22T02:52:45.975Z,996.93
2022-09-22T02:53:45.894Z,996.94
2022-09-22T02:54:45.911Z,996.93
2022-09-22T02:55:45.724Z,996.96
2022-09-22T02:56:45.644Z,996.95
2022-09-22T02:57:45.560Z,996.94
2022-09-22T02:58:45.480Z,996.98
2022-09-22T02:59:45.391Z,996.96
2022-09-22T03:00:45.311Z,996.92
2022-09-22T03:01:45.413Z,996.92
2022-09-22T03:02:45.161Z,996.93
2022-09-22T03:03:45.056Z,996.90
2022-09-22T03:04:45.014Z,996.94
2022-09-22T03:05:44.890Z,996.91
2022-09-22T03:06:44.808Z,996.95
2022-09-22T03:07:44.723Z,996.96
2022-09-22T03:08:44.638Z,996.93
2022-09-22T03:09:44.556Z,996.97
2022-09-22T03:10:44.469Z,996.94
2022-09-22T03:11:44.391Z,996.92
2022-09-22T03:13:09.107Z,996.90
2022-09-22T03:13:44.220Z,996.85
2022-09-22T03:14:44.140Z,996.88
2022-09-22T03:15:44.171Z,996.84
2022-09-22T03:16:43.969Z,996.87
2022-09-22T03:17:43.885Z,996.86
2022-09-22T03:18:43.821Z,996.82
2022-09-22T03:19:43.868Z,996.79
2022-09-22T03:20:43.631Z,996.81
2022-09-22T03:21:43.550Z,996.80
2022-09-22T03:22:43.468Z,996.79
2022-09-22T03:23:43.383Z,996.78
2022-09-22T03:24:43.297Z,996.80
2022-09-22T03:25:43.316Z,996.79
2022-09-22T03:26:43.134Z,996.78
2022-09-22T03:27:43.051Z,996.77
2022-09-22T03:28:42.963Z,996.79
2022-09-22T03:29:42.881Z,996.79
2022-09-22T03:30:42.861Z,996.76
2022-09-22T03:31:42.714Z,996.77
2022-09-22T03:32:42.628Z,996.75
2022-09-22T03:33:42.547Z,996.75
2022-09-22T03:34:42.482Z,996.74
2022-09-22T03:35:42.379Z,996.73
2022-09-22T03:36:42.297Z,996.71
2022-09-22T03:37:42.213Z,996.72
2022-09-22T03:38:42.127Z,996.73
2022-09-22T03:39:42.045Z,996.75
2022-09-22T03:40:41.984Z,996.75
2022-09-22T03:41:41.877Z,996.78
2022-09-22T03:42:41.791Z,996.76
2022-09-22T03:43:41.709Z,996.76
2022-09-22T03:44:41.623Z,996.78
2022-09-22T03:45:41.580Z,996.74
2022-09-22T03:46:41.457Z,996.76
2022-09-22T03:47:41.375Z,996.72
2022-09-22T03:48:44.997Z,996.75
2022-09-22T03:49:41.207Z,996.72
2022-09-22T03:50:41.141Z,996.77
2022-09-22T03:51:41.046Z,996.76
2022-09-22T03:52:40.955Z,996.74
2022-09-22T03:53:40.874Z,996.73
2022-09-22T03:54:40.787Z,996.76
2022-09-22T03:55:40.704Z,996.75
2022-09-22T03:56:40.621Z,996.76
2022-09-22T03:57:40.539Z,996.78
2022-09-22T03:58:40.453Z,996.79
2022-09-22T03:59:40.370Z,996.78
2022-09-22T04:00:40.282Z,996.76
2022-09-22T04:01:40.333Z,996.76
2022-09-22T04:02:40.265Z,996.75
2022-09-22T04:03:40.035Z,996.74
2022-09-22T04:04:39.947Z,996.75
2022-09-22T04:05:39.867Z,996.71
2022-09-22T04:06:39.857Z,996.73
2022-09-22T04:07:39.701Z,996.70
2022-09-22T04:08:39.619Z,996.71
2022-09-22T04:09:39.532Z,996.66
2022-09-22T04:10:39.547Z,996.68
2022-09-22T04:11:39.364Z,996.62
2022-09-22T04:12:39.279Z,996.64
2022-09-22T04:13:44.005Z,996.65
2022-09-22T04:14:39.113Z,996.62
2022-09-22T04:15:39.029Z,996.60
2022-09-22T04:16:39.240Z,996.62
2022-09-22T04:17:38.863Z,996.65
2022-09-22T04:18:38.780Z,996.62
2022-09-22T04:19:38.696Z,996.60
2022-09-22T04:20:38.614Z,996.65
2022-09-22T04:21:38.527Z,996.63
2022-09-22T04:22:38.464Z,996.64
2022-09-22T04:23:38.362Z,996.62
2022-09-22T04:24:38.280Z,996.58
2022-09-22T04:25:38.199Z,996.60
2022-09-22T04:26:38.358Z,996.62
2022-09-22T04:27:38.026Z,996.59
2022-09-22T04:28:37.942Z,996.61
2022-09-22T04:29:37.857Z,996.63
2022-09-22T04:30:37.850Z,996.59
2022-09-22T04:31:37.691Z,996.63
2022-09-22T04:32:37.606Z,996.61
2022-09-22T04:33:37.522Z,996.61
2022-09-22T04:34:37.437Z,996.60
2022-09-22T04:35:37.354Z,996.61
2022-09-22T04:36:37.271Z,996.63
2022-09-22T04:37:37.189Z,996.64
2022-09-22T04:38:37.121Z,996.64
2022-09-22T04:39:37.022Z,996.62
2022-09-22T04:40:36.967Z,996.65
2022-09-22T04:41:36.851Z,996.63
2022-09-22T04:42:36.767Z,996.66
2022-09-22T04:43:36.683Z,996.62
2022-09-22T04:44:36.605Z,996.61
2022-09-22T04:45:39.697Z,996.59
2022-09-22T04:46:36.433Z,996.61
2022-09-22T04:47:36.348Z,996.60
2022-09-22T04:48:36.263Z,996.61
2022-09-22T04:49:36.180Z,996.58
2022-09-22T04:50:36.097Z,996.55
2022-09-22T04:51:36.013Z,996.57
2022-09-22T04:52:35.930Z,996.56
2022-09-22T04:53:35.846Z,996.58
2022-09-22T04:54:35.776Z,996.59
2022-09-22T04:55:35.680Z,996.56
2022-09-22T04:56:35.593Z,996.58
2022-09-22T04:57:35.509Z,996.57
2022-09-22T04:58:35.425Z,996.58
2022-09-22T04:59:35.342Z,996.62
2022-09-22T05:00:35.257Z,996.61
2022-09-22T05:01:35.251Z,996.59
2022-09-22T05:02:35.094Z,996.62
2022-09-22T05:03:35.046Z,996.61
2022-09-22T05:04:34.923Z,996.60
2022-09-22T05:05:34.841Z,996.61
2022-09-22T05:06:34.753Z,996.58
2022-09-22T05:07:34.670Z,996.58
2022-09-22T05:08:34.596Z,996.57
2022-09-22T05:09:34.514Z,996.58
2022-09-22T05:10:34.440Z,996.62
2022-09-22T05:11:34.339Z,996.64
2022-09-22T05:12:34.253Z,996.61
2022-09-22T05:13:34.169Z,996.62
2022-09-22T05:14:34.084Z,996.66
2022-09-22T05:15:34.008Z,996.55
2022-09-22T05:16:34.140Z,996.59
2022-09-22T05:17:33.836Z,996.62
2022-09-22T05:18:33.749Z,996.60
2022-09-22T05:19:33.666Z,996.59
2022-09-22T05:20:33.582Z,996.61
2022-09-22T05:21:33.498Z,996.66
2022-09-22T05:22:37.700Z,996.68
2022-09-22T05:23:33.330Z,996.65
2022-09-22T05:24:33.245Z,996.69
2022-09-22T05:25:33.162Z,996.69
2022-09-22T05:26:33.096Z,996.70
2022-09-22T05:27:32.995Z,996.66
2022-09-22T05:28:32.911Z,996.70
2022-09-22T05:29:32.828Z,996.72
2022-09-22T05:30:32.741Z,996.73
2022-09-22T05:31:32.702Z,996.75
2022-09-22T05:32:32.571Z,996.72
2022-09-22T05:33:32.490Z,996.78
2022-09-22T05:34:32.405Z,996.80
2022-09-22T05:35:36.670Z,996.78
2022-09-22T05:36:32.235Z,996.78
2022-09-22T05:37:32.155Z,996.81
2022-09-22T05:38:32.071Z,996.82
2022-09-22T05:39:31.986Z,996.82
2022-09-22T05:40:31.925Z,996.82
2022-09-22T05:41:31.821Z,996.85
2022-09-22T05:42:31.751Z,996.86
2022-09-22T05:43:31.650Z,996.87
2022-09-22T05:44:31.565Z,996.85
2022-09-22T05:45:31.579Z,996.86
2022-09-22T05:46:31.401Z,996.87
2022-09-22T05:47:31.315Z,996.78
2022-09-22T05:48:31.697Z,996.85
2022-09-22T05:49:31.147Z,996.82
2022-09-22T05:50:31.064Z,996.83
2022-09-22T05:51:31.078Z,996.85
2022-09-22T05:52:30.894Z,996.83
2022-09-22T05:53:30.810Z,996.84
2022-09-22T05:54:30.731Z,996.80
2022-09-22T05:55:30.791Z,996.82
2022-09-22T05:56:30.558Z,996.80
2022-09-22T05:57:30.475Z,996.87
2022-09-22T05:58:30.413Z,996.83
2022-09-22T05:59:30.304Z,996.81
2022-09-22T06:00:30.271Z,996.85
2022-09-22T06:01:30.176Z,996.83
2022-09-22T06:02:30.097Z,996.85
2022-09-22T06:03:29.972Z,996.81
2022-09-22T06:04:29.888Z,996.84
2022-09-22T06:05:29.803Z,996.86
2022-09-22T06:06:29.720Z,996.87
2022-09-22T06:07:29.636Z,996.85
2022-09-22T06:08:29.558Z,996.88
2022-09-22T06:09:29.469Z,996.84
2022-09-22T06:10:29.383Z,996.86
2022-09-22T06:11:29.302Z,996.84
2022-09-22T06:12:29.217Z,996.82
2022-09-22T06:13:29.134Z,996.84
2022-09-22T06:14:29.067Z,996.84
2022-09-22T06:15:28.965Z,996.85
2022-09-22T06:16:28.986Z,996.85
2022-09-22T06:17:28.797Z,996.84
2022-09-22T06:18:28.714Z,996.85
2022-09-22T06:19:28.631Z,996.83
2022-09-22T06:20:28.546Z,996.86
2022-09-22T06:21:28.464Z,996.84
2022-09-22T06:22:28.378Z,996.84
2022-09-22T06:23:28.298Z,996.82
2022-09-22T06:24:28.210Z,996.79
2022-09-22T06:25:28.127Z,996.79
2022-09-22T06:26:28.046Z,996.78
2022-09-22T06:27:27.961Z,996.83
2022-09-22T06:28:27.878Z,996.82
2022-09-22T06:29:27.794Z,996.85
2022-09-22T06:30:27.728Z,996.84
2022-09-22T06:31:27.678Z,996.83
2022-09-22T06:32:27.565Z,996.79
2022-09-22T06:33:27.462Z,996.79
2022-09-22T06:34:27.386Z,996.84
2022-09-22T06:35:27.292Z,996.84
2022-09-22T06:36:27.212Z,996.81
2022-09-22T06:37:27.129Z,996.80
2022-09-22T06:38:27.047Z,996.82
2022-09-22T06:39:27.160Z,996.81
2022-09-22T06:40:26.973Z,996.81
2022-09-22T06:41:26.799Z,996.80
2022-09-22T06:42:26.712Z,996.86
2022-09-22T06:43:26.629Z,996.81
2022-09-22T06:44:26.551Z,996.83
2022-09-22T06:45:26.525Z,996.84
2022-09-22T06:46:26.403Z,996.79
2022-09-22T06:47:26.296Z,996.81
2022-09-22T06:48:26.215Z,996.80
2022-09-22T06:49:26.130Z,996.82
2022-09-22T06:50:28.822Z,996.82
2022-09-22T06:51:25.967Z,996.80
2022-09-22T06:52:25.883Z,996.82
2022-09-22T06:53:27.445Z,996.84
2022-09-22T06:54:25.899Z,996.83
2022-09-22T06:55:25.634Z,996.78
2022-09-22T06:56:25.550Z,996.79
2022-09-22T06:57:25.469Z,996.79
2022-09-22T06:58:25.386Z,996.80
2022-09-22T06:59:25.301Z,996.81
2022-09-22T07:00:25.310Z,996.82
2022-09-22T07:01:25.227Z,996.84
2022-09-22T07:02:25.384Z,996.85
2022-09-22T07:03:24.971Z,996.80
2022-09-22T07:04:24.893Z,996.82
2022-09-22T07:05:24.808Z,996.75
2022-09-22T07:06:24.727Z,996.74
2022-09-22T07:07:24.641Z,996.75
2022-09-22T07:08:24.563Z,996.76
2022-09-22T07:09:24.481Z,996.78
2022-09-22T07:10:24.494Z,996.80
2022-09-22T07:11:24.315Z,996.80
2022-09-22T07:12:24.233Z,996.79
2022-09-22T07:13:24.149Z,996.76
2022-09-22T07:14:24.070Z,996.79
2022-09-22T07:15:23.988Z,996.81
2022-09-22T07:16:23.966Z,996.81
2022-09-22T07:17:23.823Z,996.80
2022-09-22T07:18:23.764Z,996.81
2022-09-22T07:19:23.667Z,996.80
2022-09-22T07:20:23.628Z,996.78
2022-09-22T07:21:23.497Z,996.81
2022-09-22T07:22:23.416Z,996.79
2022-09-22T07:23:23.333Z,996.80
2022-09-22T07:24:23.252Z,996.79
2022-09-22T07:25:23.174Z,996.80
2022-09-22T07:26:23.093Z,996.83
2022-09-22T07:27:23.007Z,996.80
2022-09-22T07:28:22.939Z,996.79
2022-09-22T07:29:22.848Z,996.77
2022-09-22T07:30:22.866Z,996.80
2022-09-22T07:31:27.752Z,996.85
2022-09-22T07:32:22.606Z,996.81
2022-09-22T07:33:22.536Z,996.83
2022-09-22T07:34:22.475Z,996.84
2022-09-22T07:35:22.360Z,996.82
2022-09-22T07:36:22.280Z,996.82
2022-09-22T07:37:22.198Z,996.80
2022-09-22T07:38:22.117Z,996.83
2022-09-22T07:39:22.037Z,996.86
2022-09-22T07:40:22.052Z,996.86
2022-09-22T07:41:21.878Z,996.87
2022-09-22T07:42:21.796Z,996.85
2022-09-22T07:43:21.715Z,996.87
2022-09-22T07:44:21.636Z,996.81
2022-09-22T07:45:21.554Z,996.84
2022-09-22T07:46:21.506Z,996.80
2022-09-22T07:47:21.394Z,996.82
2022-09-22T07:48:21.313Z,996.78
2022-09-22T07:49:21.233Z,996.80
2022-09-22T07:50:21.343Z,996.79
2022-09-22T07:51:21.078Z,996.77
2022-09-22T07:52:20.994Z,996.80
2022-09-22T07:53:20.912Z,996.78
2022-09-22T07:54:20.833Z,996.78
2022-09-22T07:55:20.851Z,996.76
2022-09-22T07:56:20.673Z,996.76
2022-09-22T07:57:20.594Z,996.75
2022-09-22T07:58:20.514Z,996.77
2022-09-22T07:59:20.433Z,996.76
2022-09-22T08:00:20.354Z,996.77
2022-09-22T08:01:20.284Z,996.78
2022-09-22T08:02:20.263Z,996.79
2022-09-22T08:03:20.113Z,996.78
2022-09-22T08:04:20.033Z,996.80
2022-09-22T08:05:19.956Z,996.81
2022-09-22T08:06:20.054Z,996.79
2022-09-22T08:07:19.793Z,996.78
2022-09-22T08:08:19.715Z,996.76
2022-09-22T08:09:19.633Z,996.78
2022-09-22T08:10:19.554Z,996.74
2022-09-22T08:11:19.475Z,996.76
2022-09-22T08:12:19.394Z,996.74
2022-09-22T08:13:19.313Z,996.79
2022-09-22T08:14:19.237Z,996.77
2022-09-22T08:15:22.308Z,996.76
2022-09-22T08:16:19.208Z,996.77
2022-09-22T08:17:18.999Z,996.77
2022-09-22T08:18:18.918Z,996.78
2022-09-22T08:19:18.840Z,996.74
2022-09-22T08:20:18.766Z,996.71
2022-09-22T08:21:18.676Z,996.74
2022-09-22T08:22:18.620Z,996.71
2022-09-22T08:23:18.518Z,996.70
2022-09-22T08:24:18.443Z,996.74
2022-09-22T08:25:18.659Z,996.71
2022-09-22T08:26:18.283Z,996.72
2022-09-22T08:27:18.200Z,996.72
2022-09-22T08:28:18.124Z,996.72
2022-09-22T08:29:18.044Z,996.74
2022-09-22T08:30:17.974Z,996.75
2022-09-22T08:31:18.014Z,996.75
2022-09-22T08:32:17.806Z,996.78
2022-09-22T08:33:17.726Z,996.77
2022-09-22T08:34:17.703Z,996.77
2022-09-22T08:35:17.567Z,996.77
2022-09-22T08:36:17.489Z,996.76
2022-09-22T08:37:17.408Z,996.76
2022-09-22T08:38:17.350Z,996.79
2022-09-22T08:39:17.252Z,996.81
2022-09-22T08:40:17.273Z,996.81
2022-09-22T08:41:17.100Z,996.83
2022-09-22T08:42:17.015Z,996.82
2022-09-22T08:43:16.933Z,996.80
2022-09-22T08:44:16.856Z,996.80
2022-09-22T08:45:16.775Z,996.81
2022-09-22T08:46:16.731Z,996.80
2022-09-22T08:47:16.617Z,996.80
2022-09-22T08:48:16.543Z,996.79
2022-09-22T08:49:16.474Z,996.80
2022-09-22T08:50:16.383Z,996.81
2022-09-22T08:51:16.307Z,996.84
2022-09-22T08:52:16.226Z,996.83
2022-09-22T08:53:16.147Z,996.83
2022-09-22T08:54:16.088Z,996.86
2022-09-22T08:55:15.991Z,996.87
2022-09-22T08:56:15.913Z,996.86
2022-09-22T08:57:15.836Z,996.89
2022-09-22T08:58:15.956Z,996.85
2022-09-22T08:59:15.676Z,996.84
2022-09-22T09:06:33.370Z,996.85
2022-09-22T09:07:32.481Z,996.82
2022-09-22T09:08:32.410Z,996.83
2022-09-22T09:09:32.346Z,996.85
2022-09-22T09:10:32.249Z,996.83
2022-09-22T09:11:32.778Z,996.86
2022-09-22T09:12:34.714Z,996.82
2022-09-22T09:13:32.016Z,996.88
2022-09-22T09:14:31.938Z,996.85
2022-09-22T09:15:31.860Z,996.84
2022-09-22T09:16:34.283Z,996.84
2022-09-22T09:17:31.703Z,996.83
2022-09-22T09:18:31.626Z,996.87
2022-09-22T09:19:31.548Z,996.88
2022-09-22T09:20:31.473Z,996.88
2022-09-22T09:21:31.391Z,996.88
2022-09-22T09:22:31.315Z,996.86
2022-09-22T09:25:31.117Z,996.86
2022-09-22T09:26:31.006Z,996.84
2022-09-22T09:27:30.928Z,996.84
2022-09-22T09:28:30.852Z,996.84
2022-09-22T09:29:30.773Z,996.83
2022-09-22T09:30:30.695Z,996.86
2022-09-22T09:31:30.646Z,996.88
2022-09-22T09:32:30.740Z,996.89
2022-09-22T09:33:30.462Z,996.88
2022-09-22T09:34:30.384Z,996.85
2022-09-22T09:35:30.308Z,996.86
2022-09-22T09:36:30.231Z,996.83
2022-09-22T09:37:30.151Z,996.80
2022-09-22T09:38:30.076Z,996.78
2022-09-22T09:39:29.996Z,996.78
2022-09-22T09:40:30.100Z,996.81
2022-09-22T09:41:29.876Z,996.81
2022-09-22T09:42:29.766Z,996.78
2022-09-22T09:43:29.687Z,996.79
2022-09-22T09:44:29.611Z,996.78
2022-09-22T09:45:29.532Z,996.78
2022-09-22T09:46:29.494Z,996.77
2022-09-22T09:47:29.379Z,996.81
2022-09-22T09:48:29.301Z,996.79
2022-09-22T09:49:29.222Z,996.78
2022-09-22T09:50:29.151Z,996.78
2022-09-22T09:51:29.071Z,996.81
2022-09-22T09:52:28.991Z,996.77
2022-09-22T09:53:28.914Z,996.77
2022-09-22T09:54:28.837Z,996.72
2022-09-22T09:55:28.760Z,996.71
2022-09-22T09:56:28.685Z,996.70
2022-09-22T09:57:28.624Z,996.70
2022-09-22T09:58:28.527Z,996.77
2022-09-22T09:59:28.450Z,996.72
2022-09-22T10:00:28.376Z,996.77
2022-09-22T10:01:28.333Z,996.70
2022-09-22T10:02:28.218Z,996.71
2022-09-22T10:03:28.216Z,996.68
2022-09-22T10:04:28.067Z,996.71
2022-09-22T10:05:27.987Z,996.68
2022-09-22T10:06:27.915Z,996.72
2022-09-22T10:07:27.907Z,996.69
2022-09-22T10:08:27.758Z,996.68
2022-09-22T10:09:27.679Z,996.67
2022-09-22T10:10:27.610Z,996.69
2022-09-22T10:11:27.527Z,996.65
2022-09-22T10:12:27.448Z,996.64
2022-09-22T10:13:27.390Z,996.62
2022-09-22T10:14:27.303Z,996.61
2022-09-22T10:15:27.217Z,996.59
2022-09-22T10:16:27.143Z,996.59
2022-09-22T10:17:27.063Z,996.59
2022-09-22T10:18:26.987Z,996.57
2022-09-22T10:19:26.909Z,996.52
2022-09-22T10:20:26.923Z,996.54
2022-09-22T10:21:26.755Z,996.59
2022-09-22T10:22:26.743Z,996.53
2022-09-22T10:23:26.603Z,996.56
2022-09-22T10:24:26.528Z,996.53
2022-09-22T10:25:26.448Z,996.55
2022-09-22T10:26:26.596Z,996.52
2022-09-22T10:27:26.294Z,996.52
2022-09-22T10:28:26.221Z,996.50
2022-09-22T10:29:26.161Z,996.52
2022-09-22T10:30:26.169Z,996.52
2022-09-22T10:31:26.059Z,996.53
2022-09-22T10:32:25.953Z,996.48
2022-09-22T10:33:25.875Z,996.48
2022-09-22T10:34:25.763Z,996.50
2022-09-22T10:35:25.686Z,996.52
2022-09-22T10:36:25.610Z,996.47
2022-09-22T10:37:25.535Z,996.46
2022-09-22T10:38:25.455Z,996.50
2022-09-22T10:39:25.381Z,996.52
2022-09-22T10:40:25.410Z,996.45
2022-09-22T10:41:25.226Z,996.40
2022-09-22T10:42:25.150Z,996.42
2022-09-22T10:43:25.072Z,996.41
2022-09-22T10:44:38.425Z,996.41
2022-09-22T10:45:24.943Z,996.44
2022-09-22T10:46:24.906Z,996.43
2022-09-22T10:47:27.120Z,996.47
2022-09-22T10:48:24.697Z,996.45
2022-09-22T10:49:24.612Z,996.46
2022-09-22T10:50:24.661Z,996.41
2022-09-22T10:51:24.461Z,996.47
2022-09-22T10:53:16.878Z,996.45
2022-09-22T10:54:16.849Z,996.41
2022-09-22T10:55:16.725Z,996.41
2022-09-22T10:56:16.647Z,996.45
2022-09-22T10:57:16.569Z,996.42
2022-09-22T10:58:16.492Z,996.43
2022-09-22T10:59:16.419Z,996.42
2022-09-22T11:00:16.342Z,996.45
2022-09-22T11:01:16.350Z,996.39
2022-09-22T11:02:16.189Z,996.49
2022-09-22T11:03:16.114Z,996.43
2022-09-22T11:04:16.106Z,996.44
2022-09-22T11:05:15.964Z,996.42
2022-09-22T11:06:15.884Z,996.37
2022-09-22T11:07:15.812Z,996.33
2022-09-22T11:08:15.736Z,996.33
2022-09-22T11:09:15.661Z,996.36
2022-09-22T11:10:15.582Z,996.32
2022-09-22T11:11:15.543Z,996.30
2022-09-22T11:12:15.433Z,996.35
2022-09-22T11:13:15.356Z,996.29
2022-09-22T11:14:15.280Z,996.29
2022-09-22T11:15:15.205Z,996.31
2022-09-22T11:16:15.131Z,996.29
2022-09-22T11:17:15.073Z,996.30
2022-09-22T11:18:14.979Z,996.24
2022-09-22T11:19:14.910Z,996.23
2022-09-22T11:20:14.829Z,996.20
2022-09-22T11:21:14.754Z,996.18
2022-09-22T11:22:14.680Z,996.28
2022-09-22T11:23:14.607Z,996.18
2022-09-22T11:24:14.534Z,996.14
2022-09-22T11:25:14.455Z,996.21
2022-09-22T11:26:14.379Z,996.17
2022-09-22T11:27:14.304Z,996.14
2022-09-22T11:28:14.281Z,996.11
2022-09-22T11:29:14.157Z,996.14
2022-09-22T11:30:14.158Z,996.09
2022-09-22T11:31:14.035Z,996.13
2022-09-22T11:32:13.928Z,996.20
2022-09-22T11:33:13.872Z,996.42
2022-09-22T11:34:13.932Z,996.37
2022-09-22T11:35:57.608Z,996.34
2022-09-22T11:37:58.620Z,996.51
2022-09-22T11:38:58.543Z,996.42
2022-09-22T11:39:58.473Z,996.46
2022-09-22T11:40:58.401Z,996.11
2022-09-22T11:41:58.328Z,996.10
2022-09-22T11:43:47.225Z,996.45
2022-09-22T11:44:47.153Z,996.44
2022-09-22T11:45:47.126Z,996.37
2022-09-22T11:46:47.010Z,996.49
2022-09-22T11:48:34.588Z,996.05
2022-09-22T11:49:34.359Z,996.14
2022-09-22T11:50:34.287Z,996.38
2022-09-22T11:51:34.217Z,996.15
2022-09-22T11:52:34.150Z,996.07
2022-09-22T11:53:34.077Z,996.02
2022-09-22T11:54:34.006Z,995.99
2022-09-22T11:55:33.938Z,996.01
2022-09-22T11:56:33.867Z,995.98
2022-09-22T11:57:33.796Z,996.00
2022-09-22T11:58:33.724Z,995.97
2022-09-22T11:59:33.652Z,995.95
2022-09-22T12:00:33.581Z,995.92
2022-09-22T12:01:33.531Z,995.93
2022-09-22T12:02:33.555Z,995.92
2022-09-22T12:03:33.463Z,995.89
2022-09-22T12:04:33.328Z,995.93
2022-09-22T12:05:33.221Z,995.92
2022-09-22T12:06:33.148Z,995.91
2022-09-22T12:07:33.076Z,996.00
2022-09-22T12:08:33.005Z,996.41
2022-09-22T12:09:35.937Z,996.38
2022-09-22T12:10:32.858Z,995.89
2022-09-22T12:11:32.783Z,995.83
2022-09-22T12:12:32.713Z,995.85
2022-09-22T12:13:32.640Z,996.01
2022-09-22T12:14:32.568Z,996.02
2022-09-22T12:15:32.576Z,996.05
2022-09-22T12:16:32.425Z,995.86
2022-09-22T12:17:32.351Z,995.87
2022-09-22T12:18:32.280Z,995.93
2022-09-22T12:19:32.206Z,995.90
2022-09-22T12:20:32.195Z,996.30
2022-09-22T12:21:32.068Z,996.38
2022-09-22T12:22:31.991Z,996.30
2022-09-22T12:23:31.918Z,996.35
2022-09-22T12:24:31.850Z,996.25
2022-09-22T12:25:47.576Z,996.33
2022-09-22T12:26:31.705Z,996.28
2022-09-22T12:27:31.642Z,996.21
2022-09-22T12:28:31.568Z,996.21
2022-09-22T12:29:31.497Z,996.29
2022-09-22T12:30:31.478Z,995.79
2022-09-22T12:31:31.361Z,996.21
2022-09-22T12:32:31.292Z,996.26
2022-09-22T12:33:31.227Z,996.21
2022-09-22T12:34:31.155Z,996.20
2022-09-22T12:35:31.435Z,996.09
2022-09-22T12:36:31.041Z,995.78
2022-09-22T12:37:30.949Z,995.71
2022-09-22T12:38:30.887Z,996.16
2022-09-22T12:39:31.088Z,995.75